sensor_id;sensor_type;location;lat;lon;timestamp;temperature;humidity
12043;DHT22;6082;49.306;12.862;2023-11-21T00:01:53;7.80;99.90
12043;DHT22;6082;49.306;12.862;2023-11-21T00:04:18;7.70;99.90
12043;DHT22;6082;49.306;12.862;2023-11-21T00:06:44;7.70;99.90
12043;DHT22;6082;49.306;12.862;2023-11-21T00:09:12;7.70;99.90
12043;DHT22;6082;49.306;12.862;2023-11-21T00:11:38;7.70;99.90
12043;DHT22;6082;49.306;12.862;2023-11-21T00:14:04;7.70;99.90
12043;DHT22;6082;49.306;12.862;2023-11-21T00:16:30;7.70;99.90
12043;DHT22;6082;49.306;12.862;2023-11-21T00:18:56;7.70;99.90
12043;DHT22;6082;49.306;12.862;2023-11-21T00:21:21;7.70;99.90
12043;DHT22;6082;49.306;12.862;2023-11-21T00:23:47;7.70;99.90
12043;DHT22;6082;49.306;12.862;2023-11-21T00:26:13;7.70;99.90
12043;DHT22;6082;49.306;12.862;2023-11-21T00:28:39;7.80;99.90
12043;DHT22;6082;49.306;12.862;2023-11-21T00:31:05;7.80;99.90
12043;DHT22;6082;49.306;12.862;2023-11-21T00:33:32;7.80;99.90
12043;DHT22;6082;49.306;12.862;2023-11-21T00:35:57;7.80;99.90
12043;DHT22;6082;49.306;12.862;2023-11-21T00:38:23;7.80;99.90
12043;DHT22;6082;49.306;12.862;2023-11-21T00:40:49;7.80;99.90
12043;DHT22;6082;49.306;12.862;2023-11-21T00:43:15;7.80;99.90
12043;DHT22;6082;49.306;12.862;2023-11-21T00:45:41;7.80;99.90
12043;DHT22;6082;49.306;12.862;2023-11-21T00:48:06;7.80;99.90
12043;DHT22;6082;49.306;12.862;2023-11-21T00:50:33;7.80;99.90
12043;DHT22;6082;49.306;12.862;2023-11-21T00:52:59;7.80;99.90
12043;DHT22;6082;49.306;12.862;2023-11-21T00:55:25;7.70;99.90
12043;DHT22;6082;49.306;12.862;2023-11-21T00:57:51;7.80;99.90
12043;DHT22;6082;49.306;12.862;2023-11-21T01:00:17;7.80;99.90
12043;DHT22;6082;49.306;12.862;2023-11-21T01:02:44;7.70;99.90
12043;DHT22;6082;49.306;12.862;2023-11-21T01:05:10;7.70;99.90
12043;DHT22;6082;49.306;12.862;2023-11-21T01:07:36;7.70;99.90
12043;DHT22;6082;49.306;12.862;2023-11-21T01:10:03;7.70;99.90
12043;DHT22;6082;49.306;12.862;2023-11-21T01:12:31;7.70;99.90
12043;DHT22;6082;49.306;12.862;2023-11-21T01:14:57;7.70;99.90
12043;DHT22;6082;49.306;12.862;2023-11-21T01:17:25;7.70;99.90
12043;DHT22;6082;49.306;12.862;2023-11-21T01:19:51;7.70;99.90
12043;DHT22;6082;49.306;12.862;2023-11-21T01:22:17;7.60;99.90
12043;DHT22;6082;49.306;12.862;2023-11-21T01:24:47;7.60;99.90
12043;DHT22;6082;49.306;12.862;2023-11-21T01:27:13;7.60;99.90
12043;DHT22;6082;49.306;12.862;2023-11-21T01:29:39;7.70;99.90
12043;DHT22;6082;49.306;12.862;2023-11-21T01:32:05;7.70;99.90
12043;DHT22;6082;49.306;12.862;2023-11-21T01:34:33;7.70;99.90
12043;DHT22;6082;49.306;12.862;2023-11-21T01:36:59;7.70;99.90
12043;DHT22;6082;49.306;12.862;2023-11-21T01:39:25;7.70;99.90
12043;DHT22;6082;49.306;12.862;2023-11-21T01:41:51;7.60;99.90
12043;DHT22;6082;49.306;12.862;2023-11-21T01:44:17;7.70;99.90
12043;DHT22;6082;49.306;12.862;2023-11-21T01:46:45;7.60;99.90
12043;DHT22;6082;49.306;12.862;2023-11-21T01:49:12;7.60;99.90
12043;DHT22;6082;49.306;12.862;2023-11-21T01:51:40;7.60;99.90
12043;DHT22;6082;49.306;12.862;2023-11-21T01:54:06;7.50;99.90
12043;DHT22;6082;49.306;12.862;2023-11-21T01:56:32;7.50;99.90
12043;DHT22;6082;49.306;12.862;2023-11-21T01:58:59;7.50;99.90
12043;DHT22;6082;49.306;12.862;2023-11-21T02:01:25;7.50;99.90
12043;DHT22;6082;49.306;12.862;2023-11-21T02:03:51;7.50;99.90
12043;DHT22;6082;49.306;12.862;2023-11-21T02:06:18;7.50;99.90
12043;DHT22;6082;49.306;12.862;2023-11-21T02:08:44;7.50;99.90
12043;DHT22;6082;49.306;12.862;2023-11-21T02:11:10;7.40;99.90
12043;DHT22;6082;49.306;12.862;2023-11-21T02:13:38;7.50;99.90
12043;DHT22;6082;49.306;12.862;2023-11-21T02:16:09;7.40;99.90
12043;DHT22;6082;49.306;12.862;2023-11-21T02:18:36;7.50;99.90
12043;DHT22;6082;49.306;12.862;2023-11-21T02:21:04;7.50;99.90
12043;DHT22;6082;49.306;12.862;2023-11-21T02:23:30;7.50;99.90
12043;DHT22;6082;49.306;12.862;2023-11-21T02:25:56;7.40;99.90
12043;DHT22;6082;49.306;12.862;2023-11-21T02:28:21;7.40;99.90
12043;DHT22;6082;49.306;12.862;2023-11-21T02:30:54;7.40;99.90
12043;DHT22;6082;49.306;12.862;2023-11-21T02:33:24;7.40;99.90
12043;DHT22;6082;49.306;12.862;2023-11-21T02:35:50;7.40;99.90
12043;DHT22;6082;49.306;12.862;2023-11-21T02:38:23;7.40;99.90
12043;DHT22;6082;49.306;12.862;2023-11-21T02:40:48;7.40;99.90
12043;DHT22;6082;49.306;12.862;2023-11-21T02:43:14;7.40;99.90
12043;DHT22;6082;49.306;12.862;2023-11-21T02:45:40;7.30;99.90
12043;DHT22;6082;49.306;12.862;2023-11-21T02:48:07;7.30;99.90
12043;DHT22;6082;49.306;12.862;2023-11-21T02:50:33;7.30;99.90
12043;DHT22;6082;49.306;12.862;2023-11-21T02:53:01;7.30;99.90
12043;DHT22;6082;49.306;12.862;2023-11-21T02:55:27;7.30;99.90
12043;DHT22;6082;49.306;12.862;2023-11-21T02:57:54;7.20;99.90
12043;DHT22;6082;49.306;12.862;2023-11-21T03:00:21;7.20;99.90
12043;DHT22;6082;49.306;12.862;2023-11-21T03:02:49;7.20;99.90
12043;DHT22;6082;49.306;12.862;2023-11-21T03:05:15;7.20;99.90
12043;DHT22;6082;49.306;12.862;2023-11-21T03:07:41;7.20;99.90
12043;DHT22;6082;49.306;12.862;2023-11-21T03:10:10;7.10;99.90
12043;DHT22;6082;49.306;12.862;2023-11-21T03:12:37;7.10;99.90
12043;DHT22;6082;49.306;12.862;2023-11-21T03:15:04;7.10;99.90
12043;DHT22;6082;49.306;12.862;2023-11-21T03:17:31;7.10;99.90
12043;DHT22;6082;49.306;12.862;2023-11-21T03:19:59;7.10;99.90
12043;DHT22;6082;49.306;12.862;2023-11-21T03:22:25;7.10;99.90
12043;DHT22;6082;49.306;12.862;2023-11-21T03:24:52;7.10;99.90
12043;DHT22;6082;49.306;12.862;2023-11-21T03:27:18;7.10;99.90
12043;DHT22;6082;49.306;12.862;2023-11-21T03:29:44;7.10;99.90
12043;DHT22;6082;49.306;12.862;2023-11-21T03:32:12;7.10;99.90
12043;DHT22;6082;49.306;12.862;2023-11-21T03:34:53;7.10;99.90
12043;DHT22;6082;49.306;12.862;2023-11-21T03:37:20;7.20;99.90
12043;DHT22;6082;49.306;12.862;2023-11-21T03:39:46;7.20;99.90
12043;DHT22;6082;49.306;12.862;2023-11-21T03:42:12;7.20;99.90
12043;DHT22;6082;49.306;12.862;2023-11-21T03:44:38;7.20;99.90
12043;DHT22;6082;49.306;12.862;2023-11-21T03:47:04;7.20;99.90
12043;DHT22;6082;49.306;12.862;2023-11-21T03:49:30;7.20;99.90
12043;DHT22;6082;49.306;12.862;2023-11-21T03:51:56;7.20;99.90
12043;DHT22;6082;49.306;12.862;2023-11-21T03:54:22;7.20;99.90
12043;DHT22;6082;49.306;12.862;2023-11-21T03:56:48;7.20;99.90
12043;DHT22;6082;49.306;12.862;2023-11-21T03:59:13;7.20;99.90
12043;DHT22;6082;49.306;12.862;2023-11-21T04:01:39;7.20;99.90
12043;DHT22;6082;49.306;12.862;2023-11-21T04:04:05;7.20;99.90
12043;DHT22;6082;49.306;12.862;2023-11-21T04:06:30;7.20;99.90
12043;DHT22;6082;49.306;12.862;2023-11-21T04:08:58;7.20;99.90
12043;DHT22;6082;49.306;12.862;2023-11-21T04:11:24;7.30;99.90
12043;DHT22;6082;49.306;12.862;2023-11-21T04:13:50;7.30;99.90
12043;DHT22;6082;49.306;12.862;2023-11-21T04:16:15;7.30;99.90
12043;DHT22;6082;49.306;12.862;2023-11-21T04:18:41;7.30;99.90
12043;DHT22;6082;49.306;12.862;2023-11-21T04:21:07;7.30;99.90
12043;DHT22;6082;49.306;12.862;2023-11-21T04:23:34;7.30;99.90
12043;DHT22;6082;49.306;12.862;2023-11-21T04:26:01;7.30;99.90
12043;DHT22;6082;49.306;12.862;2023-11-21T04:28:27;7.30;99.90
12043;DHT22;6082;49.306;12.862;2023-11-21T04:30:53;7.30;99.90
12043;DHT22;6082;49.306;12.862;2023-11-21T04:33:19;7.30;99.90
12043;DHT22;6082;49.306;12.862;2023-11-21T04:35:45;7.30;99.90
12043;DHT22;6082;49.306;12.862;2023-11-21T04:38:11;7.30;99.90
12043;DHT22;6082;49.306;12.862;2023-11-21T04:40:37;7.30;99.90
12043;DHT22;6082;49.306;12.862;2023-11-21T04:43:03;7.20;99.90
12043;DHT22;6082;49.306;12.862;2023-11-21T04:45:29;7.20;99.90
12043;DHT22;6082;49.306;12.862;2023-11-21T04:47:55;7.20;99.90
12043;DHT22;6082;49.306;12.862;2023-11-21T04:50:21;7.20;99.90
12043;DHT22;6082;49.306;12.862;2023-11-21T04:52:47;7.20;99.90
12043;DHT22;6082;49.306;12.862;2023-11-21T04:55:13;7.10;99.90
12043;DHT22;6082;49.306;12.862;2023-11-21T04:57:40;7.10;99.90
12043;DHT22;6082;49.306;12.862;2023-11-21T05:00:08;7.10;99.90
12043;DHT22;6082;49.306;12.862;2023-11-21T05:02:34;7.10;99.90
12043;DHT22;6082;49.306;12.862;2023-11-21T05:05:01;7.10;99.90
12043;DHT22;6082;49.306;12.862;2023-11-21T05:07:26;7.10;99.90
12043;DHT22;6082;49.306;12.862;2023-11-21T05:09:55;7.10;99.90
12043;DHT22;6082;49.306;12.862;2023-11-21T05:12:22;7.10;99.90
12043;DHT22;6082;49.306;12.862;2023-11-21T05:14:51;7.10;99.90
12043;DHT22;6082;49.306;12.862;2023-11-21T05:17:16;7.10;99.90
12043;DHT22;6082;49.306;12.862;2023-11-21T05:19:42;7.10;99.90
12043;DHT22;6082;49.306;12.862;2023-11-21T05:22:11;7.00;99.90
12043;DHT22;6082;49.306;12.862;2023-11-21T05:24:37;7.10;99.90
12043;DHT22;6082;49.306;12.862;2023-11-21T05:27:04;7.10;99.90
12043;DHT22;6082;49.306;12.862;2023-11-21T05:29:30;7.10;99.90
12043;DHT22;6082;49.306;12.862;2023-11-21T05:31:56;7.00;99.90
12043;DHT22;6082;49.306;12.862;2023-11-21T05:34:22;7.10;99.90
12043;DHT22;6082;49.306;12.862;2023-11-21T05:36:50;7.00;99.90
12043;DHT22;6082;49.306;12.862;2023-11-21T05:39:16;7.10;99.90
12043;DHT22;6082;49.306;12.862;2023-11-21T05:41:43;7.10;99.90
12043;DHT22;6082;49.306;12.862;2023-11-21T05:44:09;7.00;99.90
12043;DHT22;6082;49.306;12.862;2023-11-21T05:46:34;7.00;99.90
12043;DHT22;6082;49.306;12.862;2023-11-21T05:49:00;7.00;99.90
12043;DHT22;6082;49.306;12.862;2023-11-21T05:51:26;7.00;99.90
12043;DHT22;6082;49.306;12.862;2023-11-21T05:53:51;7.00;99.90
12043;DHT22;6082;49.306;12.862;2023-11-21T05:56:17;7.00;99.90
12043;DHT22;6082;49.306;12.862;2023-11-21T05:58:43;7.00;99.90
12043;DHT22;6082;49.306;12.862;2023-11-21T06:01:09;7.00;99.90
12043;DHT22;6082;49.306;12.862;2023-11-21T06:03:38;7.00;99.90
12043;DHT22;6082;49.306;12.862;2023-11-21T06:06:04;7.00;99.90
12043;DHT22;6082;49.306;12.862;2023-11-21T06:08:30;7.00;99.90
12043;DHT22;6082;49.306;12.862;2023-11-21T06:10:56;7.00;99.90
12043;DHT22;6082;49.306;12.862;2023-11-21T06:13:22;7.00;99.90
12043;DHT22;6082;49.306;12.862;2023-11-21T06:15:50;7.00;99.90
12043;DHT22;6082;49.306;12.862;2023-11-21T06:18:17;7.00;99.90
12043;DHT22;6082;49.306;12.862;2023-11-21T06:20:45;7.00;99.90
12043;DHT22;6082;49.306;12.862;2023-11-21T06:23:11;7.00;99.90
12043;DHT22;6082;49.306;12.862;2023-11-21T06:25:37;7.00;99.90
12043;DHT22;6082;49.306;12.862;2023-11-21T06:28:03;7.00;99.90
12043;DHT22;6082;49.306;12.862;2023-11-21T06:30:29;7.00;99.90
12043;DHT22;6082;49.306;12.862;2023-11-21T06:32:54;7.00;99.90
12043;DHT22;6082;49.306;12.862;2023-11-21T06:35:21;7.00;99.90
12043;DHT22;6082;49.306;12.862;2023-11-21T06:37:47;7.00;99.90
12043;DHT22;6082;49.306;12.862;2023-11-21T06:40:13;7.00;99.90
12043;DHT22;6082;49.306;12.862;2023-11-21T06:42:43;7.10;99.90
12043;DHT22;6082;49.306;12.862;2023-11-21T06:45:10;7.10;99.90
12043;DHT22;6082;49.306;12.862;2023-11-21T06:47:36;7.10;99.90
12043;DHT22;6082;49.306;12.862;2023-11-21T06:50:03;7.10;99.90
12043;DHT22;6082;49.306;12.862;2023-11-21T06:52:29;7.10;99.90
12043;DHT22;6082;49.306;12.862;2023-11-21T06:54:55;7.10;99.90
12043;DHT22;6082;49.306;12.862;2023-11-21T06:57:23;7.10;99.90
12043;DHT22;6082;49.306;12.862;2023-11-21T06:59:48;7.10;99.90
12043;DHT22;6082;49.306;12.862;2023-11-21T07:02:16;7.10;99.90
12043;DHT22;6082;49.306;12.862;2023-11-21T07:04:45;7.10;99.90
12043;DHT22;6082;49.306;12.862;2023-11-21T07:07:11;7.10;99.90
12043;DHT22;6082;49.306;12.862;2023-11-21T07:09:37;7.10;99.90
12043;DHT22;6082;49.306;12.862;2023-11-21T07:12:03;7.20;99.90
12043;DHT22;6082;49.306;12.862;2023-11-21T07:14:31;7.20;99.90
12043;DHT22;6082;49.306;12.862;2023-11-21T07:16:57;7.20;99.90
12043;DHT22;6082;49.306;12.862;2023-11-21T07:19:23;7.20;99.90
12043;DHT22;6082;49.306;12.862;2023-11-21T07:21:50;7.20;99.90
12043;DHT22;6082;49.306;12.862;2023-11-21T07:24:18;7.20;99.90
12043;DHT22;6082;49.306;12.862;2023-11-21T07:26:44;7.20;99.90
12043;DHT22;6082;49.306;12.862;2023-11-21T07:29:09;7.20;99.90
12043;DHT22;6082;49.306;12.862;2023-11-21T07:31:37;7.20;99.90
12043;DHT22;6082;49.306;12.862;2023-11-21T07:34:03;7.20;99.90
12043;DHT22;6082;49.306;12.862;2023-11-21T07:36:29;7.20;99.90
12043;DHT22;6082;49.306;12.862;2023-11-21T07:38:55;7.20;99.90
12043;DHT22;6082;49.306;12.862;2023-11-21T07:41:20;7.20;99.90
12043;DHT22;6082;49.306;12.862;2023-11-21T07:43:47;7.20;99.90
12043;DHT22;6082;49.306;12.862;2023-11-21T07:46:13;7.20;99.90
12043;DHT22;6082;49.306;12.862;2023-11-21T07:48:40;7.20;99.90
12043;DHT22;6082;49.306;12.862;2023-11-21T07:51:07;7.20;99.90
12043;DHT22;6082;49.306;12.862;2023-11-21T07:53:34;7.20;99.90
12043;DHT22;6082;49.306;12.862;2023-11-21T07:56:07;7.30;99.90
12043;DHT22;6082;49.306;12.862;2023-11-21T07:58:36;7.30;99.90
12043;DHT22;6082;49.306;12.862;2023-11-21T08:01:03;7.30;99.90
12043;DHT22;6082;49.306;12.862;2023-11-21T08:03:29;7.40;99.90
12043;DHT22;6082;49.306;12.862;2023-11-21T08:05:59;7.40;99.90
12043;DHT22;6082;49.306;12.862;2023-11-21T08:08:25;7.50;99.90
12043;DHT22;6082;49.306;12.862;2023-11-21T08:10:51;7.50;99.90
12043;DHT22;6082;49.306;12.862;2023-11-21T08:13:24;7.50;99.90
12043;DHT22;6082;49.306;12.862;2023-11-21T08:15:53;7.50;99.90
12043;DHT22;6082;49.306;12.862;2023-11-21T08:18:19;7.50;99.90
12043;DHT22;6082;49.306;12.862;2023-11-21T08:20:45;7.50;99.90
12043;DHT22;6082;49.306;12.862;2023-11-21T08:23:16;7.50;99.90
12043;DHT22;6082;49.306;12.862;2023-11-21T08:25:45;7.50;99.90
12043;DHT22;6082;49.306;12.862;2023-11-21T08:28:11;7.50;99.90
12043;DHT22;6082;49.306;12.862;2023-11-21T08:30:37;7.50;99.90
12043;DHT22;6082;49.306;12.862;2023-11-21T08:33:03;7.50;99.90
12043;DHT22;6082;49.306;12.862;2023-11-21T08:35:29;7.40;99.90
12043;DHT22;6082;49.306;12.862;2023-11-21T08:37:55;7.50;99.90
12043;DHT22;6082;49.306;12.862;2023-11-21T08:40:21;7.50;99.90
12043;DHT22;6082;49.306;12.862;2023-11-21T08:42:48;7.40;99.90
12043;DHT22;6082;49.306;12.862;2023-11-21T08:45:14;7.40;99.90
12043;DHT22;6082;49.306;12.862;2023-11-21T08:47:40;7.40;99.90
12043;DHT22;6082;49.306;12.862;2023-11-21T08:50:07;7.40;99.90
12043;DHT22;6082;49.306;12.862;2023-11-21T08:52:34;7.40;99.90
12043;DHT22;6082;49.306;12.862;2023-11-21T08:55:00;7.40;99.90
12043;DHT22;6082;49.306;12.862;2023-11-21T08:57:36;7.40;99.90
12043;DHT22;6082;49.306;12.862;2023-11-21T09:00:03;7.40;99.90
12043;DHT22;6082;49.306;12.862;2023-11-21T09:02:31;7.40;99.90
12043;DHT22;6082;49.306;12.862;2023-11-21T09:04:59;7.40;99.90
12043;DHT22;6082;49.306;12.862;2023-11-21T09:07:29;7.40;99.90
12043;DHT22;6082;49.306;12.862;2023-11-21T09:09:55;7.40;99.90
12043;DHT22;6082;49.306;12.862;2023-11-21T09:12:20;7.40;99.90
12043;DHT22;6082;49.306;12.862;2023-11-21T09:14:47;7.40;99.90
12043;DHT22;6082;49.306;12.862;2023-11-21T09:17:13;7.40;99.90
12043;DHT22;6082;49.306;12.862;2023-11-21T09:19:40;7.40;99.90
12043;DHT22;6082;49.306;12.862;2023-11-21T09:22:06;7.40;99.90
12043;DHT22;6082;49.306;12.862;2023-11-21T09:24:33;7.40;99.90
12043;DHT22;6082;49.306;12.862;2023-11-21T09:26:59;7.50;99.90
12043;DHT22;6082;49.306;12.862;2023-11-21T09:29:26;7.50;99.90
12043;DHT22;6082;49.306;12.862;2023-11-21T09:31:52;7.50;99.90
12043;DHT22;6082;49.306;12.862;2023-11-21T09:34:18;7.60;99.90
12043;DHT22;6082;49.306;12.862;2023-11-21T09:36:47;7.70;99.90
12043;DHT22;6082;49.306;12.862;2023-11-21T09:39:13;7.70;99.90
12043;DHT22;6082;49.306;12.862;2023-11-21T09:41:51;7.70;99.90
12043;DHT22;6082;49.306;12.862;2023-11-21T09:44:19;7.80;99.90
12043;DHT22;6082;49.306;12.862;2023-11-21T09:46:48;7.80;99.90
12043;DHT22;6082;49.306;12.862;2023-11-21T09:49:15;7.80;99.90
12043;DHT22;6082;49.306;12.862;2023-11-21T09:51:45;7.90;99.90
12043;DHT22;6082;49.306;12.862;2023-11-21T09:54:11;7.90;99.90
12043;DHT22;6082;49.306;12.862;2023-11-21T09:56:38;8.00;99.90
12043;DHT22;6082;49.306;12.862;2023-11-21T09:59:04;8.00;99.90
12043;DHT22;6082;49.306;12.862;2023-11-21T10:01:33;8.00;99.90
12043;DHT22;6082;49.306;12.862;2023-11-21T10:04:00;8.10;99.90
12043;DHT22;6082;49.306;12.862;2023-11-21T10:06:26;8.10;99.90
12043;DHT22;6082;49.306;12.862;2023-11-21T10:08:53;8.10;99.90
12043;DHT22;6082;49.306;12.862;2023-11-21T10:11:25;8.10;99.90
12043;DHT22;6082;49.306;12.862;2023-11-21T10:13:54;8.10;99.90
12043;DHT22;6082;49.306;12.862;2023-11-21T10:16:20;8.20;99.90
12043;DHT22;6082;49.306;12.862;2023-11-21T10:18:52;8.20;99.90
12043;DHT22;6082;49.306;12.862;2023-11-21T10:21:18;8.20;99.90
12043;DHT22;6082;49.306;12.862;2023-11-21T10:23:44;8.30;99.90
12043;DHT22;6082;49.306;12.862;2023-11-21T10:26:12;8.30;99.90
12043;DHT22;6082;49.306;12.862;2023-11-21T10:29:02;8.30;99.90
12043;DHT22;6082;49.306;12.862;2023-11-21T10:31:32;8.40;99.90
12043;DHT22;6082;49.306;12.862;2023-11-21T10:36:41;8.40;99.90
12043;DHT22;6082;49.306;12.862;2023-11-21T10:39:07;8.40;99.90
12043;DHT22;6082;49.306;12.862;2023-11-21T10:41:33;8.40;99.90
12043;DHT22;6082;49.306;12.862;2023-11-21T10:44:01;8.40;99.90
12043;DHT22;6082;49.306;12.862;2023-11-21T10:46:29;8.50;99.90
12043;DHT22;6082;49.306;12.862;2023-11-21T10:48:56;8.40;99.90
12043;DHT22;6082;49.306;12.862;2023-11-21T10:51:22;8.50;99.90
12043;DHT22;6082;49.306;12.862;2023-11-21T10:53:51;8.50;99.90
12043;DHT22;6082;49.306;12.862;2023-11-21T10:56:18;8.50;99.90
12043;DHT22;6082;49.306;12.862;2023-11-21T10:58:49;8.50;99.90
12043;DHT22;6082;49.306;12.862;2023-11-21T11:01:18;8.50;99.90
12043;DHT22;6082;49.306;12.862;2023-11-21T11:03:44;8.50;99.90
12043;DHT22;6082;49.306;12.862;2023-11-21T11:06:10;8.50;99.90
12043;DHT22;6082;49.306;12.862;2023-11-21T11:08:38;8.50;99.90
12043;DHT22;6082;49.306;12.862;2023-11-21T11:11:05;8.50;99.90
12043;DHT22;6082;49.306;12.862;2023-11-21T11:13:31;8.50;99.90
12043;DHT22;6082;49.306;12.862;2023-11-21T11:16:01;8.50;99.90
12043;DHT22;6082;49.306;12.862;2023-11-21T11:18:30;8.50;99.90
12043;DHT22;6082;49.306;12.862;2023-11-21T11:27:36;8.50;99.90
12043;DHT22;6082;49.306;12.862;2023-11-21T11:35:09;8.50;99.90
12043;DHT22;6082;49.306;12.862;2023-11-21T11:37:36;8.50;99.90
12043;DHT22;6082;49.306;12.862;2023-11-21T11:40:06;8.50;99.90
12043;DHT22;6082;49.306;12.862;2023-11-21T11:42:32;8.50;99.90
12043;DHT22;6082;49.306;12.862;2023-11-21T11:44:58;8.50;99.90
12043;DHT22;6082;49.306;12.862;2023-11-21T11:47:31;8.50;99.90
12043;DHT22;6082;49.306;12.862;2023-11-21T11:52:48;8.50;99.90
12043;DHT22;6082;49.306;12.862;2023-11-21T11:55:15;8.50;99.90
12043;DHT22;6082;49.306;12.862;2023-11-21T11:57:47;8.50;99.90
12043;DHT22;6082;49.306;12.862;2023-11-21T12:00:19;8.50;99.90
12043;DHT22;6082;49.306;12.862;2023-11-21T12:02:54;8.50;99.90
12043;DHT22;6082;49.306;12.862;2023-11-21T12:05:23;8.50;99.90
12043;DHT22;6082;49.306;12.862;2023-11-21T12:07:50;8.50;99.90
12043;DHT22;6082;49.306;12.862;2023-11-21T12:10:22;8.50;99.90
12043;DHT22;6082;49.306;12.862;2023-11-21T12:12:52;8.50;99.90
12043;DHT22;6082;49.306;12.862;2023-11-21T12:15:19;8.60;99.90
12043;DHT22;6082;49.306;12.862;2023-11-21T12:17:47;8.60;99.90
12043;DHT22;6082;49.306;12.862;2023-11-21T12:20:13;8.60;99.90
12043;DHT22;6082;49.306;12.862;2023-11-21T12:22:53;8.60;99.90
12043;DHT22;6082;49.306;12.862;2023-11-21T12:25:21;8.60;99.90
12043;DHT22;6082;49.306;12.862;2023-11-21T12:27:49;8.60;99.90
12043;DHT22;6082;49.306;12.862;2023-11-21T12:30:21;8.60;99.90
12043;DHT22;6082;49.306;12.862;2023-11-21T12:32:52;8.60;99.90
12043;DHT22;6082;49.306;12.862;2023-11-21T12:35:22;8.60;99.90
12043;DHT22;6082;49.306;12.862;2023-11-21T12:37:48;8.60;99.90
12043;DHT22;6082;49.306;12.862;2023-11-21T12:40:14;8.60;99.90
12043;DHT22;6082;49.306;12.862;2023-11-21T12:42:46;8.70;99.90
12043;DHT22;6082;49.306;12.862;2023-11-21T12:47:58;8.70;99.90
12043;DHT22;6082;49.306;12.862;2023-11-21T12:50:30;8.70;99.90
12043;DHT22;6082;49.306;12.862;2023-11-21T12:53:01;8.70;99.90
12043;DHT22;6082;49.306;12.862;2023-11-21T12:55:33;8.70;99.90
12043;DHT22;6082;49.306;12.862;2023-11-21T12:58:03;8.80;99.90
12043;DHT22;6082;49.306;12.862;2023-11-21T13:00:40;8.80;99.90
12043;DHT22;6082;49.306;12.862;2023-11-21T13:03:08;8.80;99.90
12043;DHT22;6082;49.306;12.862;2023-11-21T13:05:37;8.80;99.90
12043;DHT22;6082;49.306;12.862;2023-11-21T13:08:08;8.90;99.90
12043;DHT22;6082;49.306;12.862;2023-11-21T13:10:36;8.80;99.90
12043;DHT22;6082;49.306;12.862;2023-11-21T13:13:03;8.80;99.90
12043;DHT22;6082;49.306;12.862;2023-11-21T13:15:31;8.80;99.90
12043;DHT22;6082;49.306;12.862;2023-11-21T13:17:58;8.80;99.90
12043;DHT22;6082;49.306;12.862;2023-11-21T13:20:25;8.80;99.90
12043;DHT22;6082;49.306;12.862;2023-11-21T13:22:52;8.80;99.90
12043;DHT22;6082;49.306;12.862;2023-11-21T13:25:29;8.80;99.90
12043;DHT22;6082;49.306;12.862;2023-11-21T13:27:57;8.80;99.90
12043;DHT22;6082;49.306;12.862;2023-11-21T13:30:24;8.80;99.90
12043;DHT22;6082;49.306;12.862;2023-11-21T13:32:53;8.80;99.90
12043;DHT22;6082;49.306;12.862;2023-11-21T13:35:23;8.80;99.90
12043;DHT22;6082;49.306;12.862;2023-11-21T13:38:10;8.80;99.90
12043;DHT22;6082;49.306;12.862;2023-11-21T13:40:38;8.70;99.90
12043;DHT22;6082;49.306;12.862;2023-11-21T13:43:13;8.70;99.90
12043;DHT22;6082;49.306;12.862;2023-11-21T13:45:43;8.70;99.90
12043;DHT22;6082;49.306;12.862;2023-11-21T13:48:10;8.70;99.90
12043;DHT22;6082;49.306;12.862;2023-11-21T13:50:43;8.70;99.90
12043;DHT22;6082;49.306;12.862;2023-11-21T13:53:24;8.70;99.90
12043;DHT22;6082;49.306;12.862;2023-11-21T13:55:53;8.70;99.90
12043;DHT22;6082;49.306;12.862;2023-11-21T13:58:20;8.70;99.90
12043;DHT22;6082;49.306;12.862;2023-11-21T14:01:05;8.70;99.90
12043;DHT22;6082;49.306;12.862;2023-11-21T14:03:34;8.70;99.90
12043;DHT22;6082;49.306;12.862;2023-11-21T14:06:10;8.70;99.90
12043;DHT22;6082;49.306;12.862;2023-11-21T14:08:41;8.70;99.90
12043;DHT22;6082;49.306;12.862;2023-11-21T14:11:07;8.70;99.90
12043;DHT22;6082;49.306;12.862;2023-11-21T14:13:33;8.70;99.90
12043;DHT22;6082;49.306;12.862;2023-11-21T14:15:59;8.70;99.90
12043;DHT22;6082;49.306;12.862;2023-11-21T14:18:26;8.70;99.90
12043;DHT22;6082;49.306;12.862;2023-11-21T14:20:56;8.70;99.90
12043;DHT22;6082;49.306;12.862;2023-11-21T14:23:22;8.70;99.90
12043;DHT22;6082;49.306;12.862;2023-11-21T14:25:49;8.70;99.90
12043;DHT22;6082;49.306;12.862;2023-11-21T14:28:18;8.70;99.90
12043;DHT22;6082;49.306;12.862;2023-11-21T14:30:47;8.70;99.90
12043;DHT22;6082;49.306;12.862;2023-11-21T14:33:13;8.70;99.90
12043;DHT22;6082;49.306;12.862;2023-11-21T14:35:39;8.70;99.90
12043;DHT22;6082;49.306;12.862;2023-11-21T14:38:05;8.70;99.90
12043;DHT22;6082;49.306;12.862;2023-11-21T14:40:32;8.70;99.90
12043;DHT22;6082;49.306;12.862;2023-11-21T14:43:02;8.70;99.90
12043;DHT22;6082;49.306;12.862;2023-11-21T14:45:34;8.70;99.90
12043;DHT22;6082;49.306;12.862;2023-11-21T14:48:00;8.70;99.90
12043;DHT22;6082;49.306;12.862;2023-11-21T14:50:36;8.70;99.90
12043;DHT22;6082;49.306;12.862;2023-11-21T14:53:08;8.60;99.90
12043;DHT22;6082;49.306;12.862;2023-11-21T14:55:35;8.70;99.90
12043;DHT22;6082;49.306;12.862;2023-11-21T14:58:17;8.60;99.90
12043;DHT22;6082;49.306;12.862;2023-11-21T15:00:53;8.60;99.90
12043;DHT22;6082;49.306;12.862;2023-11-21T15:03:26;8.60;99.90
12043;DHT22;6082;49.306;12.862;2023-11-21T15:06:03;8.60;99.90
12043;DHT22;6082;49.306;12.862;2023-11-21T15:08:53;8.60;99.90
12043;DHT22;6082;49.306;12.862;2023-11-21T15:11:26;8.50;99.90
12043;DHT22;6082;49.306;12.862;2023-11-21T15:13:57;8.50;99.90
12043;DHT22;6082;49.306;12.862;2023-11-21T15:16:23;8.50;99.90
12043;DHT22;6082;49.306;12.862;2023-11-21T15:18:51;8.50;99.90
12043;DHT22;6082;49.306;12.862;2023-11-21T15:21:19;8.50;99.90
12043;DHT22;6082;49.306;12.862;2023-11-21T15:23:46;8.40;99.90
12043;DHT22;6082;49.306;12.862;2023-11-21T15:26:12;8.40;99.90
12043;DHT22;6082;49.306;12.862;2023-11-21T15:28:38;8.40;99.90
12043;DHT22;6082;49.306;12.862;2023-11-21T15:31:04;8.40;99.90
12043;DHT22;6082;49.306;12.862;2023-11-21T15:33:30;8.40;99.90
12043;DHT22;6082;49.306;12.862;2023-11-21T15:35:56;8.40;99.90
12043;DHT22;6082;49.306;12.862;2023-11-21T15:38:23;8.40;99.90
12043;DHT22;6082;49.306;12.862;2023-11-21T15:40:49;8.40;99.90
12043;DHT22;6082;49.306;12.862;2023-11-21T15:43:16;8.40;99.90
12043;DHT22;6082;49.306;12.862;2023-11-21T15:45:41;8.40;99.90
12043;DHT22;6082;49.306;12.862;2023-11-21T15:48:07;8.30;99.90
12043;DHT22;6082;49.306;12.862;2023-11-21T15:50:35;8.30;99.90
12043;DHT22;6082;49.306;12.862;2023-11-21T15:53:02;8.30;99.90
12043;DHT22;6082;49.306;12.862;2023-11-21T15:55:30;8.30;99.90
12043;DHT22;6082;49.306;12.862;2023-11-21T15:57:56;8.30;99.90
12043;DHT22;6082;49.306;12.862;2023-11-21T16:00:22;8.30;99.90
12043;DHT22;6082;49.306;12.862;2023-11-21T16:02:49;8.30;99.90
12043;DHT22;6082;49.306;12.862;2023-11-21T16:05:15;8.30;99.90
12043;DHT22;6082;49.306;12.862;2023-11-21T16:07:43;8.30;99.90